Eseniya — UBYI3 — position and weather

sailwx.info

Track history (hours):
 
Tides and Currents Weather Stations Pressure Air Temp Water Temp Dewpoint Dewpoint Depression Visibility Wind Speed Wind Dir Waves Ship Positions

Eseniya

Last reported at 2017-Nov-23 16:10 UTC. Time now 2017-Nov-25 02:07 UTC.
Position N 45°18' W 000°46'.

Length 99 m; draft 4 m.

Type: Cargo ship. MMSI: 273356870.

Date/timePositionNaut miles runAvg speedWind from/ knotsBaromVisibWave heightAir tempDewpointWater temp
2017-Nov-23 16:10N 45°18' W 000°46'213.5
2017-Nov-23 16:00N 45°20' W 000°47'713.1
2017-Nov-23 15:30N 45°25' W 000°52'713.4
2017-Nov-23 15:00N 45°30' W 000°58'612.4
2017-Nov-23 14:30N 45°35' W 001°03'610.8
2017-Nov-23 13:59N 45°39' W 001°09'510.3
2017-Nov-23 13:30N 45°39' W 001°17'5 9.9
2017-Nov-23 13:00N 45°36' W 001°23'4 7.4
2017-Nov-23 12:27N 45°35' W 001°28'0 0.1
2017-Nov-23 08:58N 45°35' W 001°28'0 0.3
2017-Nov-23 08:28N 45°35' W 001°28'510.4
2017-Nov-23 07:58N 45°30' W 001°28'810.9
2017-Nov-23 07:13N 45°21' W 001°29'2111.4
2017-Nov-23 05:21N 45°00' W 001°34'411.7
2017-Nov-23 05:00N 44°56' W 001°34'611.8
2017-Nov-23 04:30N 44°51' W 001°35'611.8
2017-Nov-23 04:01N 44°45' W 001°37'611.8
2017-Nov-23 03:30N 44°39' W 001°38'611.8
2017-Nov-23 03:01N 44°33' W 001°39'611.8
2017-Nov-23 02:31N 44°27' W 001°41'611.9
2017-Nov-23 02:00N 44°21' W 001°42'612.1
2017-Nov-23 01:31N 44°15' W 001°44'612.2
2017-Nov-23 01:01N 44°09' W 001°45'612.2
2017-Nov-23 00:31N 44°03' W 001°46'612.4
2017-Nov-23 00:00N 43°57' W 001°48'612.0
2017-Nov-22 23:31N 43°51' W 001°49'612.1
2017-Nov-22 23:00N 43°45' W 001°51'612.0
2017-Nov-22 22:31N 43°39' W 001°52'611.9
2017-Nov-22 22:01N 43°34' W 001°53'612.1
2017-Nov-22 21:30N 43°28' W 001°55'611.9
2017-Nov-22 21:01N 43°22' W 001°56'3 5.5
2017-Nov-22 20:30N 43°19' W 001°54'0 0.0
2017-Nov-22 19:52N 43°19' W 001°54'0 0.0
2017-Nov-22 19:28N 43°19' W 001°54'  
2017-Nov-19 23:02N 49°16' W 004°51'411.6
2017-Nov-19 22:40N 49°18' W 004°45'211.5
2017-Nov-19 22:28N 49°19' W 004°42'611.5
2017-Nov-19 21:57N 49°22' W 004°34'511.1
2017-Nov-19 21:30N 49°25' W 004°27'510.8
2017-Nov-19 21:00N 49°28' W 004°20'510.4
2017-Nov-19 20:30N 49°30' W 004°13'5 9.9
2017-Nov-19 19:59N 49°33' W 004°06'5 9.5
2017-Nov-19 19:30N 49°35' W 004°00'5 9.1
2017-Nov-19 18:58N 49°38' W 003°54'4 8.8
2017-Nov-19 18:28N 49°40' W 003°48'4 8.8
2017-Nov-19 17:59N 49°42' W 003°42'4 9.0
2017-Nov-19 17:31N 49°44' W 003°36'5 9.2
2017-Nov-19 16:58N 49°46' W 003°30'5 9.7
2017-Nov-19 16:29N 49°49' W 003°23'510.2
2017-Nov-19 16:00N 49°51' W 003°17'510.9
2017-Nov-19 15:31N 49°54' W 003°09'611.8
2017-Nov-19 15:00N 49°57' W 003°01'612.3
2017-Nov-19 14:30N 49°59' W 002°52'612.9
2017-Nov-19 14:00N 50°01' W 002°43'1513.1
2017-Nov-19 12:52N 50°05' W 002°21'812.5
2017-Nov-19 12:15N 50°07' W 002°09'71 9.1
2017-Nov-19 04:29N 50°27' W 000°23'611.7
2017-Nov-19 04:01N 50°29' W 000°14'611.8
2017-Nov-19 03:30N 50°31' W 000°06'611.8
2017-Nov-19 03:00N 50°33' E 000°03'611.8
2017-Nov-19 02:30N 50°35' E 000°12'611.6
2017-Nov-19 02:00N 50°36' E 000°21'611.3
2017-Nov-19 01:31N 50°38' E 000°29'510.8
2017-Nov-19 01:01N 50°40' E 000°37'510.5
2017-Nov-19 00:30N 50°43' E 000°44'510.0
2017-Nov-19 00:00N 50°46' E 000°50'5 9.5
2017-Nov-18 23:29N 50°49' E 000°57'5 9.4
2017-Nov-18 22:59N 50°52' E 001°03'5 9.3
2017-Nov-18 22:24N 50°55' E 001°09'4 9.5
2017-Nov-18 21:59N 50°58' E 001°14'5 9.9
2017-Nov-18 21:30N 51°00' E 001°20'611.6
2017-Nov-18 21:00N 51°04' E 001°27'713.4
2017-Nov-18 20:30N 51°08' E 001°35'713.4
2017-Nov-18 20:01N 51°13' E 001°43'713.4
2017-Nov-18 19:30N 51°18' E 001°50'612.0
2017-Nov-18 19:01N 51°24' E 001°53'612.0
2017-Nov-18 18:31N 51°29' E 001°58'611.2
2017-Nov-18 18:01N 51°34' E 002°03'510.4
2017-Nov-18 17:30N 51°38' E 002°07'  
2017-Nov-16 10:28N 57°46' E 010°21'5 9.8
2017-Nov-16 10:00N 57°48' E 010°29'5 9.4
2017-Nov-16 09:31N 57°48' E 010°37'510.2
2017-Nov-16 09:00N 57°47' E 010°46'510.3
2017-Nov-16 08:29N 57°45' E 010°56'510.4
2017-Nov-16 08:00N 57°43' E 011°05'510.3
2017-Nov-16 07:30N 57°41' E 011°14'510.4
2017-Nov-16 07:01N 57°40' E 011°23'510.8
2017-Nov-16 06:30N 57°38' E 011°32'5 9.4
2017-Nov-16 06:00N 57°38' E 011°41'4 8.1
2017-Nov-16 05:30N 57°40' E 011°47'0 0.1
2017-Nov-16 05:01N 57°40' E 011°47'0 0.1
2017-Nov-16 04:31N 57°40' E 011°47'0 0.1
2017-Nov-16 04:01N 57°40' E 011°47'0 0.0
2017-Nov-16 03:31N 57°40' E 011°47'0 0.1
2017-Nov-16 03:00N 57°40' E 011°47'3 5.7
2017-Nov-16 02:31N 57°39' E 011°42'510.6
2017-Nov-16 02:01N 57°34' E 011°38'510.6
2017-Nov-16 01:30N 57°28' E 011°38'510.8
2017-Nov-16 01:01N 57°23' E 011°39'610.7
2017-Nov-16 00:29N 57°17' E 011°39'510.9
2017-Nov-15 23:59N 57°12' E 011°40'510.6
2017-Nov-15 23:29N 57°07' E 011°41'61 9.9
2017-Nov-15 17:22N 56°12' E 012°27'410.4
2017-Nov-15 17:00N 56°08' E 012°30'510.5
2017-Nov-15 16:30N 56°05' E 012°37'510.3
2017-Nov-15 16:00N 56°00' E 012°41'510.7
2017-Nov-15 15:30N 55°55' E 012°44'510.6
2017-Nov-15 15:00N 55°50' E 012°43'510.7
2017-Nov-15 14:30N 55°44' E 012°42'510.6
2017-Nov-15 14:00N 55°39' E 012°42'510.2
2017-Nov-15 13:30N 55°34' E 012°42'510.3
2017-Nov-15 13:00N 55°29' E 012°43'510.2
2017-Nov-15 12:30N 55°24' E 012°42'5 9.9
2017-Nov-15 12:00N 55°19' E 012°42'5 9.4
2017-Nov-15 11:30N 55°17' E 012°50'5 9.7
2017-Nov-15 11:00N 55°16' E 012°58'5 9.9
2017-Nov-15 10:30N 55°15' E 013°07'5 9.7
2017-Nov-15 10:00N 55°15' E 013°15'14 9.8
2017-Nov-15 08:32N 55°14' E 013°40'21 9.6
2017-Nov-15 06:23N 55°14' E 014°17'5 9.9
2017-Nov-15 05:53N 55°17' E 014°22'410.0
2017-Nov-15 05:30N 55°20' E 014°26'610.3
2017-Nov-15 04:57N 55°25' E 014°33'1210.0
2017-Nov-15 03:47N 55°27' E 014°53'410.0
2017-Nov-15 03:25N 55°28' E 014°59'410.0
2017-Nov-15 02:59N 55°28' E 015°07'510.0
2017-Nov-15 02:30N 55°28' E 015°15'510.1
2017-Nov-15 02:00N 55°29' E 015°24'510.2
2017-Nov-15 01:30N 55°29' E 015°33'510.2
2017-Nov-15 01:00N 55°29' E 015°42'510.1
2017-Nov-15 00:30N 55°30' E 015°51'510.0
2017-Nov-15 00:00N 55°30' E 015°60'5 9.6
2017-Nov-14 23:30N 55°31' E 016°08'5 9.1
2017-Nov-14 23:00N 55°31' E 016°16'  
Track history (hours):
 
Tides and Currents Weather Stations Pressure Air Temp Water Temp Dewpoint Dewpoint Depression Visibility Wind Speed Wind Dir Waves Ship Positions

Eseniya

Last reported at 2017-Nov-23 16:10 UTC. Time now 2017-Nov-25 02:07 UTC.
Position N 45°18' W 000°46'.

Length 99 m; draft 4 m.

Type: Cargo ship. MMSI: 273356870.

Date/timePositionNaut miles runAvg speedWind from/ knotsBaromVisibWave heightAir tempDewpointWater temp
2017-Nov-23 16:10N 45°18' W 000°46'213.5
2017-Nov-23 16:00N 45°20' W 000°47'713.1
2017-Nov-23 15:30N 45°25' W 000°52'713.4
2017-Nov-23 15:00N 45°30' W 000°58'612.4
2017-Nov-23 14:30N 45°35' W 001°03'610.8
2017-Nov-23 13:59N 45°39' W 001°09'510.3
2017-Nov-23 13:30N 45°39' W 001°17'5 9.9
2017-Nov-23 13:00N 45°36' W 001°23'4 7.4
2017-Nov-23 12:27N 45°35' W 001°28'0 0.1
2017-Nov-23 08:58N 45°35' W 001°28'0 0.3
2017-Nov-23 08:28N 45°35' W 001°28'510.4
2017-Nov-23 07:58N 45°30' W 001°28'810.9
2017-Nov-23 07:13N 45°21' W 001°29'2111.4
2017-Nov-23 05:21N 45°00' W 001°34'411.7
2017-Nov-23 05:00N 44°56' W 001°34'611.8
2017-Nov-23 04:30N 44°51' W 001°35'611.8
2017-Nov-23 04:01N 44°45' W 001°37'611.8
2017-Nov-23 03:30N 44°39' W 001°38'611.8
2017-Nov-23 03:01N 44°33' W 001°39'611.8
2017-Nov-23 02:31N 44°27' W 001°41'611.9
2017-Nov-23 02:00N 44°21' W 001°42'612.1
2017-Nov-23 01:31N 44°15' W 001°44'612.2
2017-Nov-23 01:01N 44°09' W 001°45'612.2
2017-Nov-23 00:31N 44°03' W 001°46'612.4
2017-Nov-23 00:00N 43°57' W 001°48'612.0
2017-Nov-22 23:31N 43°51' W 001°49'612.1
2017-Nov-22 23:00N 43°45' W 001°51'612.0
2017-Nov-22 22:31N 43°39' W 001°52'611.9
2017-Nov-22 22:01N 43°34' W 001°53'612.1
2017-Nov-22 21:30N 43°28' W 001°55'611.9
2017-Nov-22 21:01N 43°22' W 001°56'3 5.5
2017-Nov-22 20:30N 43°19' W 001°54'0 0.0
2017-Nov-22 19:52N 43°19' W 001°54'0 0.0
2017-Nov-22 19:28N 43°19' W 001°54'  
2017-Nov-19 23:02N 49°16' W 004°51'411.6
2017-Nov-19 22:40N 49°18' W 004°45'211.5
2017-Nov-19 22:28N 49°19' W 004°42'611.5
2017-Nov-19 21:57N 49°22' W 004°34'511.1
2017-Nov-19 21:30N 49°25' W 004°27'510.8
2017-Nov-19 21:00N 49°28' W 004°20'510.4
2017-Nov-19 20:30N 49°30' W 004°13'5 9.9
2017-Nov-19 19:59N 49°33' W 004°06'5 9.5
2017-Nov-19 19:30N 49°35' W 004°00'5 9.1
2017-Nov-19 18:58N 49°38' W 003°54'4 8.8
2017-Nov-19 18:28N 49°40' W 003°48'4 8.8
2017-Nov-19 17:59N 49°42' W 003°42'4 9.0
2017-Nov-19 17:31N 49°44' W 003°36'5 9.2
2017-Nov-19 16:58N 49°46' W 003°30'5 9.7
2017-Nov-19 16:29N 49°49' W 003°23'510.2
2017-Nov-19 16:00N 49°51' W 003°17'510.9
2017-Nov-19 15:31N 49°54' W 003°09'611.8
2017-Nov-19 15:00N 49°57' W 003°01'612.3
2017-Nov-19 14:30N 49°59' W 002°52'612.9
2017-Nov-19 14:00N 50°01' W 002°43'1513.1
2017-Nov-19 12:52N 50°05' W 002°21'812.5
2017-Nov-19 12:15N 50°07' W 002°09'71 9.1
2017-Nov-19 04:29N 50°27' W 000°23'611.7
2017-Nov-19 04:01N 50°29' W 000°14'611.8
2017-Nov-19 03:30N 50°31' W 000°06'611.8
2017-Nov-19 03:00N 50°33' E 000°03'611.8
2017-Nov-19 02:30N 50°35' E 000°12'611.6
2017-Nov-19 02:00N 50°36' E 000°21'611.3
2017-Nov-19 01:31N 50°38' E 000°29'510.8
2017-Nov-19 01:01N 50°40' E 000°37'510.5
2017-Nov-19 00:30N 50°43' E 000°44'510.0
2017-Nov-19 00:00N 50°46' E 000°50'5 9.5
2017-Nov-18 23:29N 50°49' E 000°57'5 9.4
2017-Nov-18 22:59N 50°52' E 001°03'5 9.3
2017-Nov-18 22:24N 50°55' E 001°09'4 9.5
2017-Nov-18 21:59N 50°58' E 001°14'5 9.9
2017-Nov-18 21:30N 51°00' E 001°20'611.6
2017-Nov-18 21:00N 51°04' E 001°27'713.4
2017-Nov-18 20:30N 51°08' E 001°35'713.4
2017-Nov-18 20:01N 51°13' E 001°43'713.4
2017-Nov-18 19:30N 51°18' E 001°50'612.0
2017-Nov-18 19:01N 51°24' E 001°53'612.0
2017-Nov-18 18:31N 51°29' E 001°58'611.2
2017-Nov-18 18:01N 51°34' E 002°03'510.4
2017-Nov-18 17:30N 51°38' E 002°07'  
2017-Nov-16 10:28N 57°46' E 010°21'5 9.8
2017-Nov-16 10:00N 57°48' E 010°29'5 9.4
2017-Nov-16 09:31N 57°48' E 010°37'510.2
2017-Nov-16 09:00N 57°47' E 010°46'510.3
2017-Nov-16 08:29N 57°45' E 010°56'510.4
2017-Nov-16 08:00N 57°43' E 011°05'510.3
2017-Nov-16 07:30N 57°41' E 011°14'510.4
2017-Nov-16 07:01N 57°40' E 011°23'510.8
2017-Nov-16 06:30N 57°38' E 011°32'5 9.4
2017-Nov-16 06:00N 57°38' E 011°41'4 8.1
2017-Nov-16 05:30N 57°40' E 011°47'0 0.1
2017-Nov-16 05:01N 57°40' E 011°47'0 0.1
2017-Nov-16 04:31N 57°40' E 011°47'0 0.1
2017-Nov-16 04:01N 57°40' E 011°47'0 0.0
2017-Nov-16 03:31N 57°40' E 011°47'0 0.1
2017-Nov-16 03:00N 57°40' E 011°47'3 5.7
2017-Nov-16 02:31N 57°39' E 011°42'510.6
2017-Nov-16 02:01N 57°34' E 011°38'510.6
2017-Nov-16 01:30N 57°28' E 011°38'510.8
2017-Nov-16 01:01N 57°23' E 011°39'610.7
2017-Nov-16 00:29N 57°17' E 011°39'510.9
2017-Nov-15 23:59N 57°12' E 011°40'510.6
2017-Nov-15 23:29N 57°07' E 011°41'61 9.9
2017-Nov-15 17:22N 56°12' E 012°27'410.4
2017-Nov-15 17:00N 56°08' E 012°30'510.5
2017-Nov-15 16:30N 56°05' E 012°37'510.3
2017-Nov-15 16:00N 56°00' E 012°41'510.7
2017-Nov-15 15:30N 55°55' E 012°44'510.6
2017-Nov-15 15:00N 55°50' E 012°43'510.7
2017-Nov-15 14:30N 55°44' E 012°42'510.6
2017-Nov-15 14:00N 55°39' E 012°42'510.2
2017-Nov-15 13:30N 55°34' E 012°42'510.3
2017-Nov-15 13:00N 55°29' E 012°43'510.2
2017-Nov-15 12:30N 55°24' E 012°42'5 9.9
2017-Nov-15 12:00N 55°19' E 012°42'5 9.4
2017-Nov-15 11:30N 55°17' E 012°50'5 9.7
2017-Nov-15 11:00N 55°16' E 012°58'5 9.9
2017-Nov-15 10:30N 55°15' E 013°07'5 9.7
2017-Nov-15 10:00N 55°15' E 013°15'14 9.8
2017-Nov-15 08:32N 55°14' E 013°40'21 9.6
2017-Nov-15 06:23N 55°14' E 014°17'5 9.9
2017-Nov-15 05:53N 55°17' E 014°22'410.0
2017-Nov-15 05:30N 55°20' E 014°26'610.3
2017-Nov-15 04:57N 55°25' E 014°33'1210.0
2017-Nov-15 03:47N 55°27' E 014°53'410.0
2017-Nov-15 03:25N 55°28' E 014°59'410.0
2017-Nov-15 02:59N 55°28' E 015°07'510.0
2017-Nov-15 02:30N 55°28' E 015°15'510.1
2017-Nov-15 02:00N 55°29' E 015°24'510.2
2017-Nov-15 01:30N 55°29' E 015°33'510.2
2017-Nov-15 01:00N 55°29' E 015°42'510.1
2017-Nov-15 00:30N 55°30' E 015°51'510.0
2017-Nov-15 00:00N 55°30' E 015°60'5 9.6
2017-Nov-14 23:30N 55°31' E 016°08'5 9.1
2017-Nov-14 23:00N 55°31' E 016°16'  

Dump ship's entire track history